sensor_id;sensor_type;location;lat;lon;timestamp;pressure;altitude;pressure_sealevel;temperature
49785;BMP280;35679;38.732;-121.358;2024-03-02T00:00:24;100399.56;;;16.90
49785;BMP280;35679;38.732;-121.358;2024-03-02T00:03:14;100390.09;;;16.94
49785;BMP280;35679;38.732;-121.358;2024-03-02T00:06:04;100392.53;;;16.96
49785;BMP280;35679;38.732;-121.358;2024-03-02T00:08:58;100385.56;;;16.95
49785;BMP280;35679;38.732;-121.358;2024-03-02T00:11:48;100375.75;;;16.95
49785;BMP280;35679;38.732;-121.358;2024-03-02T00:14:38;100372.47;;;16.93
49785;BMP280;35679;38.732;-121.358;2024-03-02T00:17:27;100362.84;;;16.92
49785;BMP280;35679;38.732;-121.358;2024-03-02T00:20:18;100373.50;;;16.92
49785;BMP280;35679;38.732;-121.358;2024-03-02T00:23:15;100365.50;;;16.92
49785;BMP280;35679;38.732;-121.358;2024-03-02T00:26:05;100370.03;;;16.92
49785;BMP280;35679;38.732;-121.358;2024-03-02T00:28:56;100364.69;;;16.92
49785;BMP280;35679;38.732;-121.358;2024-03-02T00:31:49;100362.44;;;16.89
49785;BMP280;35679;38.732;-121.358;2024-03-02T00:34:39;100357.13;;;16.89
49785;BMP280;35679;38.732;-121.358;2024-03-02T00:37:29;100358.19;;;16.88
49785;BMP280;35679;38.732;-121.358;2024-03-02T00:40:19;100355.94;;;16.85
49785;BMP280;35679;38.732;-121.358;2024-03-02T00:46:18;100352.84;;;16.88
49785;BMP280;35679;38.732;-121.358;2024-03-02T00:49:17;100353.25;;;16.85
49785;BMP280;35679;38.732;-121.358;2024-03-02T00:52:09;100349.78;;;16.84
49785;BMP280;35679;38.732;-121.358;2024-03-02T00:54:59;100375.03;;;16.82
49785;BMP280;35679;38.732;-121.358;2024-03-02T00:57:49;100360.06;;;16.81
49785;BMP280;35679;38.732;-121.358;2024-03-02T01:00:38;100364.78;;;16.79
49785;BMP280;35679;38.732;-121.358;2024-03-02T01:03:28;100364.78;;;16.79
49785;BMP280;35679;38.732;-121.358;2024-03-02T01:06:17;100370.94;;;16.79
49785;BMP280;35679;38.732;-121.358;2024-03-02T01:09:08;100355.16;;;16.78
49785;BMP280;35679;38.732;-121.358;2024-03-02T01:11:57;100353.53;;;16.77
49785;BMP280;35679;38.732;-121.358;2024-03-02T01:14:47;100343.06;;;16.75
49785;BMP280;35679;38.732;-121.358;2024-03-02T01:17:36;100345.16;;;16.73
49785;BMP280;35679;38.732;-121.358;2024-03-02T01:20:26;100341.88;;;16.71
49785;BMP280;35679;38.732;-121.358;2024-03-02T01:23:16;100349.06;;;16.71
49785;BMP280;35679;38.732;-121.358;2024-03-02T01:26:05;100341.06;;;16.71
49785;BMP280;35679;38.732;-121.358;2024-03-02T01:28:56;100335.75;;;16.71
49785;BMP280;35679;38.732;-121.358;2024-03-02T01:31:45;100319.97;;;16.69
49785;BMP280;35679;38.732;-121.358;2024-03-02T01:34:35;100320.78;;;16.70
49785;BMP280;35679;38.732;-121.358;2024-03-02T01:37:24;100351.72;;;16.71
49785;BMP280;35679;38.732;-121.358;2024-03-02T01:40:16;100353.78;;;16.69
49785;BMP280;35679;38.732;-121.358;2024-03-02T01:43:06;100330.84;;;16.68
49785;BMP280;35679;38.732;-121.358;2024-03-02T01:45:57;100349.69;;;16.66
49785;BMP280;35679;38.732;-121.358;2024-03-02T01:48:46;100336.59;;;16.65
49785;BMP280;35679;38.732;-121.358;2024-03-02T01:51:36;100336.81;;;16.63
49785;BMP280;35679;38.732;-121.358;2024-03-02T01:54:27;100333.94;;;16.65
49785;BMP280;35679;38.732;-121.358;2024-03-02T01:57:17;100331.50;;;16.63
49785;BMP280;35679;38.732;-121.358;2024-03-02T02:00:07;100337.84;;;16.62
49785;BMP280;35679;38.732;-121.358;2024-03-02T02:02:59;100336.22;;;16.61
49785;BMP280;35679;38.732;-121.358;2024-03-02T02:05:48;100360.41;;;16.60
49785;BMP280;35679;38.732;-121.358;2024-03-02T02:08:38;100367.56;;;16.59
49785;BMP280;35679;38.732;-121.358;2024-03-02T02:11:27;100370.22;;;16.59
49785;BMP280;35679;38.732;-121.358;2024-03-02T02:14:18;100349.13;;;16.58
49785;BMP280;35679;38.732;-121.358;2024-03-02T02:17:08;100354.69;;;16.56
49785;BMP280;35679;38.732;-121.358;2024-03-02T02:19:57;100354.91;;;16.55
49785;BMP280;35679;38.732;-121.358;2024-03-02T02:22:57;100348.75;;;16.54
49785;BMP280;35679;38.732;-121.358;2024-03-02T02:25:47;100345.28;;;16.54
49785;BMP280;35679;38.732;-121.358;2024-03-02T02:28:36;100354.28;;;16.53
49785;BMP280;35679;38.732;-121.358;2024-03-02T02:31:26;100325.22;;;16.51
49785;BMP280;35679;38.732;-121.358;2024-03-02T02:34:16;100335.06;;;16.51
49785;BMP280;35679;38.732;-121.358;2024-03-02T02:37:05;100322.78;;;16.50
49785;BMP280;35679;38.732;-121.358;2024-03-02T02:39:55;100342.44;;;16.49
49785;BMP280;35679;38.732;-121.358;2024-03-02T02:42:44;100318.69;;;16.47
49785;BMP280;35679;38.732;-121.358;2024-03-02T02:45:34;100316.25;;;16.46
49785;BMP280;35679;38.732;-121.358;2024-03-02T02:48:24;100290.44;;;16.46
49785;BMP280;35679;38.732;-121.358;2024-03-02T02:51:13;100287.16;;;16.44
49785;BMP280;35679;38.732;-121.358;2024-03-02T02:54:03;100285.31;;;16.45
49785;BMP280;35679;38.732;-121.358;2024-03-02T02:56:52;100289.22;;;16.42
49785;BMP280;35679;38.732;-121.358;2024-03-02T02:59:42;100315.03;;;16.42
49785;BMP280;35679;38.732;-121.358;2024-03-02T03:02:31;100312.56;;;16.41
49785;BMP280;35679;38.732;-121.358;2024-03-02T03:05:21;100299.25;;;16.41
49785;BMP280;35679;38.732;-121.358;2024-03-02T03:08:10;100290.47;;;16.40
49785;BMP280;35679;38.732;-121.358;2024-03-02T03:10:59;100273.88;;;16.38
49785;BMP280;35679;38.732;-121.358;2024-03-02T03:13:49;100280.22;;;16.37
49785;BMP280;35679;38.732;-121.358;2024-03-02T03:16:38;100285.56;;;16.37
49785;BMP280;35679;38.732;-121.358;2024-03-02T03:19:28;100290.88;;;16.37
49785;BMP280;35679;38.732;-121.358;2024-03-02T03:22:17;100276.78;;;16.37
49785;BMP280;35679;38.732;-121.358;2024-03-02T03:25:07;100292.97;;;16.35
49785;BMP280;35679;38.732;-121.358;2024-03-02T03:27:59;100298.28;;;16.35
49785;BMP280;35679;38.732;-121.358;2024-03-02T03:30:51;100294.78;;;16.35
49785;BMP280;35679;38.732;-121.358;2024-03-02T03:33:40;100299.31;;;16.34
49785;BMP280;35679;38.732;-121.358;2024-03-02T03:36:30;100294.22;;;16.33
49785;BMP280;35679;38.732;-121.358;2024-03-02T03:39:19;100270.03;;;16.34
49785;BMP280;35679;38.732;-121.358;2024-03-02T03:42:09;100273.72;;;16.33
49785;BMP280;35679;38.732;-121.358;2024-03-02T03:44:59;100273.72;;;16.33
49785;BMP280;35679;38.732;-121.358;2024-03-02T03:47:48;100272.06;;;16.32
49785;BMP280;35679;38.732;-121.358;2024-03-02T03:50:38;100269.41;;;16.32
49785;BMP280;35679;38.732;-121.358;2024-03-02T03:53:27;100233.78;;;16.33
49785;BMP280;35679;38.732;-121.358;2024-03-02T03:56:17;100235.81;;;16.31
49785;BMP280;35679;38.732;-121.358;2024-03-02T03:59:06;100250.38;;;16.29
49785;BMP280;35679;38.732;-121.358;2024-03-02T04:01:56;100261.03;;;16.29
49785;BMP280;35679;38.732;-121.358;2024-03-02T04:04:45;100251.00;;;16.31
49785;BMP280;35679;38.732;-121.358;2024-03-02T04:07:36;100241.75;;;16.33
49785;BMP280;35679;38.732;-121.358;2024-03-02T04:10:29;100242.00;;;16.32
49785;BMP280;35679;38.732;-121.358;2024-03-02T04:13:19;100224.16;;;16.32
49785;BMP280;35679;38.732;-121.358;2024-03-02T04:16:08;100224.16;;;16.32
49785;BMP280;35679;38.732;-121.358;2024-03-02T04:18:58;100217.81;;;16.33
49785;BMP280;35679;38.732;-121.358;2024-03-02T04:21:47;100219.66;;;16.33
49785;BMP280;35679;38.732;-121.358;2024-03-02T04:24:37;100209.81;;;16.33
49785;BMP280;35679;38.732;-121.358;2024-03-02T04:27:26;100229.88;;;16.36
49785;BMP280;35679;38.732;-121.358;2024-03-02T04:30:16;100229.25;;;16.34
49785;BMP280;35679;38.732;-121.358;2024-03-02T04:33:06;100223.94;;;16.34
49785;BMP280;35679;38.732;-121.358;2024-03-02T04:35:59;100209.22;;;16.31
49785;BMP280;35679;38.732;-121.358;2024-03-02T04:38:48;100222.53;;;16.31
49785;BMP280;35679;38.732;-121.358;2024-03-02T04:41:37;100225.19;;;16.31
49785;BMP280;35679;38.732;-121.358;2024-03-02T04:44:27;100232.38;;;16.31
49785;BMP280;35679;38.732;-121.358;2024-03-02T04:47:16;100220.91;;;16.30
49785;BMP280;35679;38.732;-121.358;2024-03-02T04:50:06;100212.09;;;16.30
49785;BMP280;35679;38.732;-121.358;2024-03-02T04:52:56;100205.97;;;16.29
49785;BMP280;35679;38.732;-121.358;2024-03-02T04:55:46;100197.97;;;16.29
49785;BMP280;35679;38.732;-121.358;2024-03-02T04:58:58;100236.06;;;16.30
49785;BMP280;35679;38.732;-121.358;2024-03-02T05:01:47;100245.06;;;16.29
49785;BMP280;35679;38.732;-121.358;2024-03-02T05:04:38;100212.09;;;16.30
49785;BMP280;35679;38.732;-121.358;2024-03-02T05:07:28;100224.59;;;16.29
49785;BMP280;35679;38.732;-121.358;2024-03-02T05:10:17;100230.72;;;16.30
49785;BMP280;35679;38.732;-121.358;2024-03-02T05:13:07;100231.56;;;16.30
49785;BMP280;35679;38.732;-121.358;2024-03-02T05:15:57;100223.75;;;16.29
49785;BMP280;35679;38.732;-121.358;2024-03-02T05:18:46;100221.31;;;16.27
49785;BMP280;35679;38.732;-121.358;2024-03-02T05:21:36;100228.28;;;16.28
49785;BMP280;35679;38.732;-121.358;2024-03-02T05:24:25;100252.25;;;16.28
49785;BMP280;35679;38.732;-121.358;2024-03-02T05:27:18;100288.72;;;16.28
49785;BMP280;35679;38.732;-121.358;2024-03-02T05:30:08;100267.56;;;16.26
49785;BMP280;35679;38.732;-121.358;2024-03-02T05:32:58;100256.13;;;16.26
49785;BMP280;35679;38.732;-121.358;2024-03-02T05:35:48;100254.91;;;16.28
49785;BMP280;35679;38.732;-121.358;2024-03-02T05:38:39;100252.25;;;16.28
49785;BMP280;35679;38.732;-121.358;2024-03-02T05:41:28;100255.31;;;16.25
49785;BMP280;35679;38.732;-121.358;2024-03-02T05:44:18;100243.84;;;16.25
49785;BMP280;35679;38.732;-121.358;2024-03-02T05:47:08;100249.16;;;16.25
49785;BMP280;35679;38.732;-121.358;2024-03-02T05:49:58;100243.25;;;16.23
49785;BMP280;35679;38.732;-121.358;2024-03-02T05:52:47;100255.72;;;16.22
49785;BMP280;35679;38.732;-121.358;2024-03-02T05:55:36;100241.84;;;16.20
49785;BMP280;35679;38.732;-121.358;2024-03-02T05:58:26;100241.84;;;16.20
49785;BMP280;35679;38.732;-121.358;2024-03-02T06:01:43;100237.53;;;16.19
49785;BMP280;35679;38.732;-121.358;2024-03-02T06:04:33;100234.88;;;16.19
49785;BMP280;35679;38.732;-121.358;2024-03-02T06:07:22;100238.34;;;16.20
49785;BMP280;35679;38.732;-121.358;2024-03-02T06:10:12;100239.97;;;16.21
49785;BMP280;35679;38.732;-121.358;2024-03-02T06:13:02;100225.03;;;16.20
49785;BMP280;35679;38.732;-121.358;2024-03-02T06:15:52;100224.22;;;16.19
49785;BMP280;35679;38.732;-121.358;2024-03-02T06:18:41;100226.06;;;16.19
49785;BMP280;35679;38.732;-121.358;2024-03-02T06:21:31;100234.25;;;16.17
49785;BMP280;35679;38.732;-121.358;2024-03-02T06:24:20;100243.88;;;16.18
49785;BMP280;35679;38.732;-121.358;2024-03-02T06:27:10;100238.56;;;16.18
49785;BMP280;35679;38.732;-121.358;2024-03-02T06:29:59;100237.75;;;16.18
49785;BMP280;35679;38.732;-121.358;2024-03-02T06:32:48;100248.59;;;16.16
49785;BMP280;35679;38.732;-121.358;2024-03-02T06:35:38;100235.28;;;16.16
49785;BMP280;35679;38.732;-121.358;2024-03-02T06:38:28;100247.78;;;16.16
49785;BMP280;35679;38.732;-121.358;2024-03-02T06:41:17;100233.66;;;16.15
49785;BMP280;35679;38.732;-121.358;2024-03-02T06:44:07;100228.53;;;16.14
49785;BMP280;35679;38.732;-121.358;2024-03-02T06:46:56;100230.41;;;16.13
49785;BMP280;35679;38.732;-121.358;2024-03-02T06:49:46;100218.72;;;16.14
49785;BMP280;35679;38.732;-121.358;2024-03-02T06:52:36;100224.88;;;16.15
49785;BMP280;35679;38.732;-121.358;2024-03-02T06:55:29;100227.75;;;16.13
49785;BMP280;35679;38.732;-121.358;2024-03-02T06:58:18;100242.69;;;16.14
49785;BMP280;35679;38.732;-121.358;2024-03-02T07:01:08;100258.84;;;16.13
49785;BMP280;35679;38.732;-121.358;2024-03-02T07:03:58;100265.00;;;16.13
49785;BMP280;35679;38.732;-121.358;2024-03-02T07:06:48;100270.31;;;16.13
49785;BMP280;35679;38.732;-121.358;2024-03-02T07:09:38;100275.03;;;16.11
49785;BMP280;35679;38.732;-121.358;2024-03-02T07:12:27;100283.00;;;16.11
49785;BMP280;35679;38.732;-121.358;2024-03-02T07:15:17;100262.75;;;16.10
49785;BMP280;35679;38.732;-121.358;2024-03-02T07:18:24;100248.63;;;16.10
49785;BMP280;35679;38.732;-121.358;2024-03-02T07:21:14;100255.81;;;16.09
49785;BMP280;35679;38.732;-121.358;2024-03-02T07:24:04;100258.47;;;16.09
49785;BMP280;35679;38.732;-121.358;2024-03-02T07:26:55;100270.16;;;16.08
49785;BMP280;35679;38.732;-121.358;2024-03-02T07:29:45;100263.19;;;16.07
49785;BMP280;35679;38.732;-121.358;2024-03-02T07:32:34;100277.50;;;16.06
49785;BMP280;35679;38.732;-121.358;2024-03-02T07:35:24;100258.88;;;16.06
49785;BMP280;35679;38.732;-121.358;2024-03-02T07:38:16;100263.41;;;16.06
49785;BMP280;35679;38.732;-121.358;2024-03-02T07:41:06;100266.28;;;16.04
49785;BMP280;35679;38.732;-121.358;2024-03-02T07:43:56;100267.09;;;16.05
49785;BMP280;35679;38.732;-121.358;2024-03-02T07:46:47;100275.06;;;16.05
49785;BMP280;35679;38.732;-121.358;2024-03-02T07:49:39;100270.56;;;16.05
49785;BMP280;35679;38.732;-121.358;2024-03-02T07:52:28;100259.31;;;16.03
49785;BMP280;35679;38.732;-121.358;2024-03-02T07:55:18;100257.47;;;16.04
49785;BMP280;35679;38.732;-121.358;2024-03-02T07:58:07;100256.06;;;16.01
49785;BMP280;35679;38.732;-121.358;2024-03-02T08:00:57;100253.38;;;16.01
49785;BMP280;35679;38.732;-121.358;2024-03-02T08:03:49;100258.72;;;16.01
49785;BMP280;35679;38.732;-121.358;2024-03-02T08:06:39;100266.91;;;16.00
49785;BMP280;35679;38.732;-121.358;2024-03-02T08:09:29;100266.09;;;15.99
49785;BMP280;35679;38.732;-121.358;2024-03-02T08:12:18;100271.44;;;15.99
49785;BMP280;35679;38.732;-121.358;2024-03-02T08:15:08;100267.94;;;15.99
49785;BMP280;35679;38.732;-121.358;2024-03-02T08:17:58;100277.78;;;15.98
49785;BMP280;35679;38.732;-121.358;2024-03-02T08:20:48;100278.78;;;15.97
49785;BMP280;35679;38.732;-121.358;2024-03-02T08:23:37;100288.81;;;15.95
49785;BMP280;35679;38.732;-121.358;2024-03-02T08:26:28;100290.69;;;15.95
49785;BMP280;35679;38.732;-121.358;2024-03-02T08:29:20;100293.56;;;15.93
49785;BMP280;35679;38.732;-121.358;2024-03-02T08:32:09;100286.59;;;15.92
49785;BMP280;35679;38.732;-121.358;2024-03-02T08:34:59;100272.69;;;15.90
49785;BMP280;35679;38.732;-121.358;2024-03-02T08:37:49;100267.56;;;15.89
49785;BMP280;35679;38.732;-121.358;2024-03-02T08:40:38;100278.44;;;15.87
49785;BMP280;35679;38.732;-121.358;2024-03-02T08:43:28;100272.91;;;15.89
49785;BMP280;35679;38.732;-121.358;2024-03-02T08:46:17;100278.44;;;15.87
49785;BMP280;35679;38.732;-121.358;2024-03-02T08:49:07;100281.09;;;15.87
49785;BMP280;35679;38.732;-121.358;2024-03-02T08:51:57;100277.41;;;15.88
49785;BMP280;35679;38.732;-121.358;2024-03-02T08:54:46;100280.25;;;15.87
49785;BMP280;35679;38.732;-121.358;2024-03-02T08:57:36;100283.97;;;15.86
49785;BMP280;35679;38.732;-121.358;2024-03-02T09:00:27;100284.78;;;15.86
49785;BMP280;35679;38.732;-121.358;2024-03-02T09:03:16;100278.66;;;15.86
49785;BMP280;35679;38.732;-121.358;2024-03-02T09:06:06;100279.47;;;15.86
49785;BMP280;35679;38.732;-121.358;2024-03-02T09:08:58;100286.63;;;15.86
49785;BMP280;35679;38.732;-121.358;2024-03-02T09:11:48;100298.88;;;15.87
49785;BMP280;35679;38.732;-121.358;2024-03-02T09:14:37;100309.34;;;15.88
49785;BMP280;35679;38.732;-121.358;2024-03-02T09:17:27;100298.06;;;15.86
49785;BMP280;35679;38.732;-121.358;2024-03-02T09:20:16;100298.28;;;15.85
49785;BMP280;35679;38.732;-121.358;2024-03-02T09:23:06;100293.19;;;15.83
49785;BMP280;35679;38.732;-121.358;2024-03-02T09:25:55;100288.47;;;15.85
49785;BMP280;35679;38.732;-121.358;2024-03-02T09:28:45;100299.31;;;15.84
49785;BMP280;35679;38.732;-121.358;2024-03-02T09:31:42;100294.81;;;15.84
49785;BMP280;35679;38.732;-121.358;2024-03-02T09:34:32;100300.13;;;15.84
49785;BMP280;35679;38.732;-121.358;2024-03-02T09:37:21;100319.56;;;15.85
49785;BMP280;35679;38.732;-121.358;2024-03-02T09:40:12;100358.66;;;15.84
49785;BMP280;35679;38.732;-121.358;2024-03-02T09:43:03;100361.94;;;15.80
49785;BMP280;35679;38.732;-121.358;2024-03-02T09:45:53;100345.16;;;15.79
49785;BMP280;35679;38.732;-121.358;2024-03-02T09:48:44;100333.94;;;15.77
49785;BMP280;35679;38.732;-121.358;2024-03-02T09:51:34;100337.41;;;15.78
49785;BMP280;35679;38.732;-121.358;2024-03-02T09:54:24;100324.31;;;15.76
49785;BMP280;35679;38.732;-121.358;2024-03-02T09:57:14;100303.03;;;15.76
49785;BMP280;35679;38.732;-121.358;2024-03-02T10:00:05;100294.44;;;15.74
49785;BMP280;35679;38.732;-121.358;2024-03-02T10:02:54;100300.81;;;15.74
49785;BMP280;35679;38.732;-121.358;2024-03-02T10:05:44;100285.03;;;15.72
49785;BMP280;35679;38.732;-121.358;2024-03-02T10:08:43;100307.72;;;15.74
49785;BMP280;35679;38.732;-121.358;2024-03-02T10:11:37;100312.47;;;15.73
49785;BMP280;35679;38.732;-121.358;2024-03-02T10:14:28;100300.81;;;15.74
49785;BMP280;35679;38.732;-121.358;2024-03-02T10:17:17;100290.16;;;15.74
49785;BMP280;35679;38.732;-121.358;2024-03-02T10:20:23;100298.16;;;15.74
49785;BMP280;35679;38.732;-121.358;2024-03-02T10:23:15;100302.41;;;15.74
49785;BMP280;35679;38.732;-121.358;2024-03-02T10:26:17;100315.94;;;15.73
49785;BMP280;35679;38.732;-121.358;2024-03-02T10:29:08;100323.09;;;15.73
49785;BMP280;35679;38.732;-121.358;2024-03-02T10:32:02;100330.06;;;15.74
49785;BMP280;35679;38.732;-121.358;2024-03-02T10:34:52;100327.19;;;15.75
49785;BMP280;35679;38.732;-121.358;2024-03-02T10:37:41;100334.53;;;15.73
49785;BMP280;35679;38.732;-121.358;2024-03-02T10:40:31;100313.47;;;15.72
49785;BMP280;35679;38.732;-121.358;2024-03-02T10:43:21;100310.81;;;15.72
49785;BMP280;35679;38.732;-121.358;2024-03-02T10:46:11;100310.81;;;15.72
49785;BMP280;35679;38.732;-121.358;2024-03-02T10:49:03;100311.63;;;15.72
49785;BMP280;35679;38.732;-121.358;2024-03-02T10:51:56;100300.19;;;15.72
49785;BMP280;35679;38.732;-121.358;2024-03-02T10:54:45;100296.09;;;15.69
49785;BMP280;35679;38.732;-121.358;2024-03-02T10:57:45;100274.00;;;15.69
49785;BMP280;35679;38.732;-121.358;2024-03-02T11:00:38;100311.22;;;15.69
49785;BMP280;35679;38.732;-121.358;2024-03-02T11:03:33;100279.31;;;15.69
49785;BMP280;35679;38.732;-121.358;2024-03-02T11:06:24;100272.16;;;15.69
49785;BMP280;35679;38.732;-121.358;2024-03-02T11:09:19;100296.09;;;15.69
49785;BMP280;35679;38.732;-121.358;2024-03-02T11:12:44;100298.97;;;15.68
49785;BMP280;35679;38.732;-121.358;2024-03-02T11:15:40;100300.81;;;15.67
49785;BMP280;35679;38.732;-121.358;2024-03-02T11:18:32;100305.09;;;15.68
49785;BMP280;35679;38.732;-121.358;2024-03-02T11:21:22;100310.63;;;15.67
49785;BMP280;35679;38.732;-121.358;2024-03-02T11:27:14;100317.78;;;15.66
49785;BMP280;35679;38.732;-121.358;2024-03-02T11:30:05;100328.22;;;15.68
49785;BMP280;35679;38.732;-121.358;2024-03-02T11:32:56;100322.28;;;15.66
49785;BMP280;35679;38.732;-121.358;2024-03-02T11:35:45;100317.41;;;15.63
49785;BMP280;35679;38.732;-121.358;2024-03-02T11:38:36;100312.09;;;15.63
49785;BMP280;35679;38.732;-121.358;2024-03-02T11:41:26;100314.75;;;15.63
49785;BMP280;35679;38.732;-121.358;2024-03-02T11:44:16;100331.72;;;15.62
49785;BMP280;35679;38.732;-121.358;2024-03-02T11:47:07;100330.88;;;15.61
49785;BMP280;35679;38.732;-121.358;2024-03-02T11:49:57;100331.09;;;15.60
49785;BMP280;35679;38.732;-121.358;2024-03-02T11:52:48;100337.03;;;15.62
49785;BMP280;35679;38.732;-121.358;2024-03-02T11:55:38;100339.47;;;15.63
49785;BMP280;35679;38.732;-121.358;2024-03-02T11:58:34;100345.00;;;15.62
49785;BMP280;35679;38.732;-121.358;2024-03-02T12:01:25;100353.00;;;15.62
49785;BMP280;35679;38.732;-121.358;2024-03-02T12:04:16;100363.41;;;15.63
49785;BMP280;35679;38.732;-121.358;2024-03-02T12:07:06;100378.75;;;15.61
49785;BMP280;35679;38.732;-121.358;2024-03-02T12:10:02;100403.53;;;15.62
49785;BMP280;35679;38.732;-121.358;2024-03-02T12:12:58;100420.69;;;15.59
49785;BMP280;35679;38.732;-121.358;2024-03-02T12:15:48;100408.66;;;15.57
49785;BMP280;35679;38.732;-121.358;2024-03-02T12:18:42;100409.03;;;15.54
49785;BMP280;35679;38.732;-121.358;2024-03-02T12:21:32;100407.00;;;15.56
49785;BMP280;35679;38.732;-121.358;2024-03-02T12:24:22;100411.50;;;15.55
49785;BMP280;35679;38.732;-121.358;2024-03-02T12:27:13;100417.63;;;15.56
49785;BMP280;35679;38.732;-121.358;2024-03-02T12:30:04;100415.78;;;15.56
49785;BMP280;35679;38.732;-121.358;2024-03-02T12:32:57;100417.00;;;15.54
49785;BMP280;35679;38.732;-121.358;2024-03-02T12:35:48;100434.00;;;15.53
49785;BMP280;35679;38.732;-121.358;2024-03-02T12:38:43;100423.38;;;15.53
49785;BMP280;35679;38.732;-121.358;2024-03-02T12:41:33;100433.19;;;15.52
49785;BMP280;35679;38.732;-121.358;2024-03-02T12:44:23;100434.41;;;15.56
49785;BMP280;35679;38.732;-121.358;2024-03-02T12:47:12;100427.66;;;15.54
49785;BMP280;35679;38.732;-121.358;2024-03-02T12:50:04;100433.16;;;15.59
49785;BMP280;35679;38.732;-121.358;2024-03-02T12:52:54;100438.47;;;15.59
49785;BMP280;35679;38.732;-121.358;2024-03-02T12:55:47;100437.69;;;15.58
49785;BMP280;35679;38.732;-121.358;2024-03-02T12:58:40;100421.72;;;15.58
49785;BMP280;35679;38.732;-121.358;2024-03-02T13:01:31;100425.41;;;15.57
49785;BMP280;35679;38.732;-121.358;2024-03-02T13:04:28;100403.13;;;15.58
49785;BMP280;35679;38.732;-121.358;2024-03-02T13:07:18;100408.22;;;15.60
49785;BMP280;35679;38.732;-121.358;2024-03-02T13:10:08;100406.56;;;15.59
49785;BMP280;35679;38.732;-121.358;2024-03-02T13:12:58;100420.91;;;15.58
49785;BMP280;35679;38.732;-121.358;2024-03-02T13:15:48;100427.84;;;15.59
49785;BMP280;35679;38.732;-121.358;2024-03-02T13:18:39;100434.19;;;15.64
49785;BMP280;35679;38.732;-121.358;2024-03-02T13:21:31;100431.75;;;15.69
49785;BMP280;35679;38.732;-121.358;2024-03-02T13:24:21;100427.44;;;15.62
49785;BMP280;35679;38.732;-121.358;2024-03-02T13:27:10;100431.56;;;15.58
49785;BMP280;35679;38.732;-121.358;2024-03-02T13:30:01;100431.94;;;15.61
49785;BMP280;35679;38.732;-121.358;2024-03-02T13:32:51;100439.53;;;15.64
49785;BMP280;35679;38.732;-121.358;2024-03-02T13:35:42;100446.28;;;15.60
49785;BMP280;35679;38.732;-121.358;2024-03-02T13:38:31;100454.88;;;15.56
49785;BMP280;35679;38.732;-121.358;2024-03-02T13:41:20;100461.19;;;15.61
49785;BMP280;35679;38.732;-121.358;2024-03-02T13:44:10;100454.88;;;15.56
49785;BMP280;35679;38.732;-121.358;2024-03-02T13:47:00;100463.84;;;15.55
49785;BMP280;35679;38.732;-121.358;2024-03-02T13:49:50;100471.25;;;15.53
49785;BMP280;35679;38.732;-121.358;2024-03-02T13:52:40;100479.41;;;15.51
49785;BMP280;35679;38.732;-121.358;2024-03-02T13:55:29;100494.75;;;15.49
49785;BMP280;35679;38.732;-121.358;2024-03-02T13:58:18;100499.44;;;15.47
49785;BMP280;35679;38.732;-121.358;2024-03-02T14:01:09;100505.78;;;15.46
49785;BMP280;35679;38.732;-121.358;2024-03-02T14:03:59;100499.88;;;15.44
49785;BMP280;35679;38.732;-121.358;2024-03-02T14:06:48;100503.53;;;15.43
49785;BMP280;35679;38.732;-121.358;2024-03-02T14:09:38;100492.91;;;15.43
49785;BMP280;35679;38.732;-121.358;2024-03-02T14:12:27;100503.75;;;15.42
49785;BMP280;35679;38.732;-121.358;2024-03-02T14:15:17;100518.06;;;15.41
49785;BMP280;35679;38.732;-121.358;2024-03-02T14:18:08;100527.84;;;15.40
49785;BMP280;35679;38.732;-121.358;2024-03-02T14:20:59;100528.69;;;15.41
49785;BMP280;35679;38.732;-121.358;2024-03-02T14:23:48;100530.50;;;15.40
49785;BMP280;35679;38.732;-121.358;2024-03-02T14:26:39;100537.03;;;15.38
49785;BMP280;35679;38.732;-121.358;2024-03-02T14:29:29;100543.41;;;15.37
49785;BMP280;35679;38.732;-121.358;2024-03-02T14:32:19;100534.38;;;15.38
49785;BMP280;35679;38.732;-121.358;2024-03-02T14:35:08;100546.25;;;15.35
49785;BMP280;35679;38.732;-121.358;2024-03-02T14:37:59;100547.28;;;15.34
49785;BMP280;35679;38.732;-121.358;2024-03-02T14:40:48;100546.66;;;15.32
49785;BMP280;35679;38.732;-121.358;2024-03-02T14:43:39;100557.28;;;15.32
49785;BMP280;35679;38.732;-121.358;2024-03-02T14:46:30;100573.25;;;15.32
49785;BMP280;35679;38.732;-121.358;2024-03-02T14:49:20;100575.09;;;15.32
49785;BMP280;35679;38.732;-121.358;2024-03-02T14:52:09;100574.06;;;15.33
49785;BMP280;35679;38.732;-121.358;2024-03-02T14:54:59;100576.13;;;15.31
49785;BMP280;35679;38.732;-121.358;2024-03-02T14:57:49;100571.00;;;15.29
49785;BMP280;35679;38.732;-121.358;2024-03-02T15:00:38;100571.81;;;15.30
49785;BMP280;35679;38.732;-121.358;2024-03-02T15:03:28;100579.56;;;15.31
49785;BMP280;35679;38.732;-121.358;2024-03-02T15:06:18;100584.47;;;15.28
49785;BMP280;35679;38.732;-121.358;2024-03-02T15:09:07;100589.78;;;15.28
49785;BMP280;35679;38.732;-121.358;2024-03-02T15:11:57;100604.91;;;15.27
49785;BMP280;35679;38.732;-121.358;2024-03-02T15:14:46;100606.78;;;15.27
49785;BMP280;35679;38.732;-121.358;2024-03-02T15:17:36;100617.19;;;15.28
49785;BMP280;35679;38.732;-121.358;2024-03-02T15:20:26;100617.59;;;15.25
49785;BMP280;35679;38.732;-121.358;2024-03-02T15:23:15;100624.53;;;15.26
49785;BMP280;35679;38.732;-121.358;2024-03-02T15:26:05;100633.34;;;15.27
49785;BMP280;35679;38.732;-121.358;2024-03-02T15:28:57;100635.81;;;14.95
49785;BMP280;35679;38.732;-121.358;2024-03-02T15:31:47;100649.72;;;14.97
49785;BMP280;35679;38.732;-121.358;2024-03-02T15:34:37;100646.41;;;14.88